sensor_id;sensor_type;location;lat;lon;timestamp;P1;durP1;ratioP1;P2;durP2;ratioP2
53650;SDS011;39552;45.776;15.892;2022-11-15T00:01:14;103.05;;;45.88;;
53650;SDS011;39552;45.776;15.892;2022-11-15T00:03:43;100.97;;;45.88;;
53650;SDS011;39552;45.776;15.892;2022-11-15T00:06:10;103.57;;;45.55;;
53650;SDS011;39552;45.776;15.892;2022-11-15T00:08:37;102.88;;;45.30;;
53650;SDS011;39552;45.776;15.892;2022-11-15T00:11:06;107.60;;;46.50;;
53650;SDS011;39552;45.776;15.892;2022-11-15T00:13:33;95.03;;;43.38;;
53650;SDS011;39552;45.776;15.892;2022-11-15T00:16:00;113.50;;;47.15;;
53650;SDS011;39552;45.776;15.892;2022-11-15T00:18:28;109.32;;;47.78;;
53650;SDS011;39552;45.776;15.892;2022-11-15T00:20:55;109.82;;;46.83;;
53650;SDS011;39552;45.776;15.892;2022-11-15T00:23:23;108.40;;;46.83;;
53650;SDS011;39552;45.776;15.892;2022-11-15T00:25:54;106.22;;;46.25;;
53650;SDS011;39552;45.776;15.892;2022-11-15T00:28:23;118.60;;;48.38;;
53650;SDS011;39552;45.776;15.892;2022-11-15T00:30:50;107.30;;;47.05;;
53650;SDS011;39552;45.776;15.892;2022-11-15T00:33:17;109.28;;;48.55;;
53650;SDS011;39552;45.776;15.892;2022-11-15T00:35:44;118.00;;;48.42;;
53650;SDS011;39552;45.776;15.892;2022-11-15T00:38:11;110.63;;;45.70;;
53650;SDS011;39552;45.776;15.892;2022-11-15T00:40:38;109.22;;;46.70;;
53650;SDS011;39552;45.776;15.892;2022-11-15T00:43:06;113.00;;;46.72;;
53650;SDS011;39552;45.776;15.892;2022-11-15T00:45:34;110.07;;;44.78;;
53650;SDS011;39552;45.776;15.892;2022-11-15T00:48:02;105.97;;;45.38;;
53650;SDS011;39552;45.776;15.892;2022-11-15T00:50:29;107.47;;;43.97;;
53650;SDS011;39552;45.776;15.892;2022-11-15T00:52:56;104.95;;;44.15;;
53650;SDS011;39552;45.776;15.892;2022-11-15T00:55:23;101.47;;;44.45;;
53650;SDS011;39552;45.776;15.892;2022-11-15T00:57:50;102.97;;;44.38;;
53650;SDS011;39552;45.776;15.892;2022-11-15T01:00:17;104.78;;;45.40;;
53650;SDS011;39552;45.776;15.892;2022-11-15T01:02:47;100.72;;;44.45;;
53650;SDS011;39552;45.776;15.892;2022-11-15T01:05:14;100.68;;;42.92;;
53650;SDS011;39552;45.776;15.892;2022-11-15T01:07:42;104.32;;;44.38;;
53650;SDS011;39552;45.776;15.892;2022-11-15T01:10:10;108.18;;;42.25;;
53650;SDS011;39552;45.776;15.892;2022-11-15T01:12:39;100.38;;;41.35;;
53650;SDS011;39552;45.776;15.892;2022-11-15T01:15:07;102.28;;;42.03;;
53650;SDS011;39552;45.776;15.892;2022-11-15T01:17:38;98.68;;;41.03;;
53650;SDS011;39552;45.776;15.892;2022-11-15T01:20:07;106.13;;;42.25;;
53650;SDS011;39552;45.776;15.892;2022-11-15T01:22:35;98.65;;;40.85;;
53650;SDS011;39552;45.776;15.892;2022-11-15T01:25:02;100.50;;;40.95;;
53650;SDS011;39552;45.776;15.892;2022-11-15T01:27:29;104.35;;;41.47;;
53650;SDS011;39552;45.776;15.892;2022-11-15T01:29:56;96.38;;;40.38;;
53650;SDS011;39552;45.776;15.892;2022-11-15T01:32:23;108.63;;;41.00;;
53650;SDS011;39552;45.776;15.892;2022-11-15T01:34:50;103.38;;;41.97;;
53650;SDS011;39552;45.776;15.892;2022-11-15T01:37:18;99.18;;;41.20;;
53650;SDS011;39552;45.776;15.892;2022-11-15T01:39:45;104.88;;;41.72;;
53650;SDS011;39552;45.776;15.892;2022-11-15T01:42:12;100.38;;;41.05;;
53650;SDS011;39552;45.776;15.892;2022-11-15T01:44:40;100.63;;;40.83;;
53650;SDS011;39552;45.776;15.892;2022-11-15T01:47:09;104.07;;;39.65;;
53650;SDS011;39552;45.776;15.892;2022-11-15T01:49:48;100.53;;;39.95;;
53650;SDS011;39552;45.776;15.892;2022-11-15T01:54:50;102.05;;;40.20;;
53650;SDS011;39552;45.776;15.892;2022-11-15T01:57:21;101.78;;;40.78;;
53650;SDS011;39552;45.776;15.892;2022-11-15T01:59:48;105.68;;;41.70;;
53650;SDS011;39552;45.776;15.892;2022-11-15T02:02:15;99.55;;;40.67;;
53650;SDS011;39552;45.776;15.892;2022-11-15T02:04:42;107.97;;;41.75;;
53650;SDS011;39552;45.776;15.892;2022-11-15T02:07:11;90.45;;;38.83;;
53650;SDS011;39552;45.776;15.892;2022-11-15T02:09:42;94.78;;;40.10;;
53650;SDS011;39552;45.776;15.892;2022-11-15T02:12:10;100.47;;;39.65;;
53650;SDS011;39552;45.776;15.892;2022-11-15T02:14:41;108.68;;;40.63;;
53650;SDS011;39552;45.776;15.892;2022-11-15T02:17:16;102.45;;;40.53;;
53650;SDS011;39552;45.776;15.892;2022-11-15T02:20:13;96.00;;;39.10;;
53650;SDS011;39552;45.776;15.892;2022-11-15T02:26:20;101.30;;;38.65;;
53650;SDS011;39552;45.776;15.892;2022-11-15T02:29:06;95.43;;;37.38;;
53650;SDS011;39552;45.776;15.892;2022-11-15T02:31:39;95.82;;;38.47;;
53650;SDS011;39552;45.776;15.892;2022-11-15T02:34:11;82.72;;;36.78;;
53650;SDS011;39552;45.776;15.892;2022-11-15T02:36:49;94.13;;;38.20;;
53650;SDS011;39552;45.776;15.892;2022-11-15T02:39:28;83.18;;;35.70;;
53650;SDS011;39552;45.776;15.892;2022-11-15T02:42:02;81.03;;;35.40;;
53650;SDS011;39552;45.776;15.892;2022-11-15T02:44:33;86.18;;;36.08;;
53650;SDS011;39552;45.776;15.892;2022-11-15T02:47:07;83.93;;;35.38;;
53650;SDS011;39552;45.776;15.892;2022-11-15T02:49:38;78.00;;;33.92;;
53650;SDS011;39552;45.776;15.892;2022-11-15T02:52:07;82.53;;;34.22;;
53650;SDS011;39552;45.776;15.892;2022-11-15T02:54:34;70.97;;;33.10;;
53650;SDS011;39552;45.776;15.892;2022-11-15T02:57:02;77.65;;;32.55;;
53650;SDS011;39552;45.776;15.892;2022-11-15T03:02:39;68.93;;;31.35;;
53650;SDS011;39552;45.776;15.892;2022-11-15T03:05:15;68.85;;;31.52;;
53650;SDS011;39552;45.776;15.892;2022-11-15T03:07:48;69.10;;;31.50;;
53650;SDS011;39552;45.776;15.892;2022-11-15T03:10:30;67.45;;;31.42;;
53650;SDS011;39552;45.776;15.892;2022-11-15T03:13:04;71.15;;;32.17;;
53650;SDS011;39552;45.776;15.892;2022-11-15T03:15:41;67.93;;;31.17;;
53650;SDS011;39552;45.776;15.892;2022-11-15T03:18:16;66.63;;;31.85;;
53650;SDS011;39552;45.776;15.892;2022-11-15T03:20:48;63.30;;;31.50;;
53650;SDS011;39552;45.776;15.892;2022-11-15T03:23:17;74.53;;;32.63;;
53650;SDS011;39552;45.776;15.892;2022-11-15T03:25:45;62.10;;;30.25;;
53650;SDS011;39552;45.776;15.892;2022-11-15T03:28:18;59.30;;;29.90;;
53650;SDS011;39552;45.776;15.892;2022-11-15T03:30:49;66.75;;;31.40;;
53650;SDS011;39552;45.776;15.892;2022-11-15T03:33:24;67.93;;;31.70;;
53650;SDS011;39552;45.776;15.892;2022-11-15T03:35:56;60.05;;;29.88;;
53650;SDS011;39552;45.776;15.892;2022-11-15T03:38:25;66.70;;;29.95;;
53650;SDS011;39552;45.776;15.892;2022-11-15T03:40:55;66.38;;;30.58;;
53650;SDS011;39552;45.776;15.892;2022-11-15T03:43:28;61.88;;;30.75;;
53650;SDS011;39552;45.776;15.892;2022-11-15T03:46:01;69.30;;;31.83;;
53650;SDS011;39552;45.776;15.892;2022-11-15T03:48:33;65.57;;;30.45;;
53650;SDS011;39552;45.776;15.892;2022-11-15T03:51:06;66.82;;;30.38;;
53650;SDS011;39552;45.776;15.892;2022-11-15T03:53:34;63.45;;;30.02;;
53650;SDS011;39552;45.776;15.892;2022-11-15T03:56:01;60.88;;;29.27;;
53650;SDS011;39552;45.776;15.892;2022-11-15T03:58:27;66.32;;;30.00;;
53650;SDS011;39552;45.776;15.892;2022-11-15T04:00:54;64.22;;;30.40;;
53650;SDS011;39552;45.776;15.892;2022-11-15T04:03:24;60.65;;;30.45;;
53650;SDS011;39552;45.776;15.892;2022-11-15T04:05:52;67.00;;;31.90;;
53650;SDS011;39552;45.776;15.892;2022-11-15T04:08:20;74.90;;;32.53;;
53650;SDS011;39552;45.776;15.892;2022-11-15T04:10:48;72.97;;;32.72;;
53650;SDS011;39552;45.776;15.892;2022-11-15T04:13:20;67.60;;;32.25;;
53650;SDS011;39552;45.776;15.892;2022-11-15T04:15:48;70.47;;;32.72;;
53650;SDS011;39552;45.776;15.892;2022-11-15T04:18:15;68.95;;;32.30;;
53650;SDS011;39552;45.776;15.892;2022-11-15T04:20:41;66.90;;;31.33;;
53650;SDS011;39552;45.776;15.892;2022-11-15T04:23:11;66.53;;;32.65;;
53650;SDS011;39552;45.776;15.892;2022-11-15T04:25:40;69.38;;;32.88;;
53650;SDS011;39552;45.776;15.892;2022-11-15T04:28:08;77.70;;;34.78;;
53650;SDS011;39552;45.776;15.892;2022-11-15T04:30:35;72.18;;;34.13;;
53650;SDS011;39552;45.776;15.892;2022-11-15T04:33:02;79.60;;;34.03;;
53650;SDS011;39552;45.776;15.892;2022-11-15T04:35:29;73.25;;;34.47;;
53650;SDS011;39552;45.776;15.892;2022-11-15T04:37:57;78.95;;;33.65;;
53650;SDS011;39552;45.776;15.892;2022-11-15T04:40:26;76.85;;;35.40;;
53650;SDS011;39552;45.776;15.892;2022-11-15T04:42:53;77.67;;;35.17;;
53650;SDS011;39552;45.776;15.892;2022-11-15T04:45:28;79.40;;;33.53;;
53650;SDS011;39552;45.776;15.892;2022-11-15T04:47:56;86.40;;;34.85;;
53650;SDS011;39552;45.776;15.892;2022-11-15T04:50:23;80.90;;;35.95;;
53650;SDS011;39552;45.776;15.892;2022-11-15T04:52:51;83.75;;;36.22;;
53650;SDS011;39552;45.776;15.892;2022-11-15T04:55:31;79.60;;;35.20;;
53650;SDS011;39552;45.776;15.892;2022-11-15T04:57:59;72.18;;;33.80;;
53650;SDS011;39552;45.776;15.892;2022-11-15T05:00:27;72.40;;;32.88;;
53650;SDS011;39552;45.776;15.892;2022-11-15T05:02:55;78.82;;;33.28;;
53650;SDS011;39552;45.776;15.892;2022-11-15T05:05:23;65.68;;;31.45;;
53650;SDS011;39552;45.776;15.892;2022-11-15T05:07:50;67.82;;;32.75;;
53650;SDS011;39552;45.776;15.892;2022-11-15T05:10:17;71.47;;;32.55;;
53650;SDS011;39552;45.776;15.892;2022-11-15T05:12:46;67.95;;;33.13;;
53650;SDS011;39552;45.776;15.892;2022-11-15T05:15:13;67.65;;;32.00;;
53650;SDS011;39552;45.776;15.892;2022-11-15T05:17:40;66.90;;;30.77;;
53650;SDS011;39552;45.776;15.892;2022-11-15T05:20:07;63.40;;;31.27;;
53650;SDS011;39552;45.776;15.892;2022-11-15T05:22:35;67.03;;;31.10;;
53650;SDS011;39552;45.776;15.892;2022-11-15T05:25:02;62.13;;;29.90;;
53650;SDS011;39552;45.776;15.892;2022-11-15T05:27:30;60.20;;;31.45;;
53650;SDS011;39552;45.776;15.892;2022-11-15T05:29:59;67.03;;;31.38;;
53650;SDS011;39552;45.776;15.892;2022-11-15T05:32:26;58.83;;;29.27;;
53650;SDS011;39552;45.776;15.892;2022-11-15T05:34:54;61.22;;;29.40;;
53650;SDS011;39552;45.776;15.892;2022-11-15T05:37:21;62.50;;;30.50;;
53650;SDS011;39552;45.776;15.892;2022-11-15T05:39:48;62.65;;;31.30;;
53650;SDS011;39552;45.776;15.892;2022-11-15T05:42:15;54.83;;;28.58;;
53650;SDS011;39552;45.776;15.892;2022-11-15T05:44:43;59.15;;;29.52;;
53650;SDS011;39552;45.776;15.892;2022-11-15T05:47:15;62.72;;;30.60;;
53650;SDS011;39552;45.776;15.892;2022-11-15T05:49:46;59.72;;;29.80;;
53650;SDS011;39552;45.776;15.892;2022-11-15T05:54:44;62.53;;;29.40;;
53650;SDS011;39552;45.776;15.892;2022-11-15T05:57:11;68.45;;;29.95;;
53650;SDS011;39552;45.776;15.892;2022-11-15T05:59:38;68.00;;;31.70;;
53650;SDS011;39552;45.776;15.892;2022-11-15T06:02:05;62.83;;;30.83;;
53650;SDS011;39552;45.776;15.892;2022-11-15T06:04:33;62.47;;;30.60;;
53650;SDS011;39552;45.776;15.892;2022-11-15T06:07:00;72.35;;;30.52;;
53650;SDS011;39552;45.776;15.892;2022-11-15T06:09:28;64.63;;;30.77;;
53650;SDS011;39552;45.776;15.892;2022-11-15T06:11:54;68.50;;;31.35;;
53650;SDS011;39552;45.776;15.892;2022-11-15T06:14:21;69.47;;;32.33;;
53650;SDS011;39552;45.776;15.892;2022-11-15T06:16:48;67.95;;;30.58;;
53650;SDS011;39552;45.776;15.892;2022-11-15T06:19:15;62.83;;;29.20;;
53650;SDS011;39552;45.776;15.892;2022-11-15T06:21:43;65.88;;;30.00;;
53650;SDS011;39552;45.776;15.892;2022-11-15T06:24:10;69.53;;;30.83;;
53650;SDS011;39552;45.776;15.892;2022-11-15T06:26:37;63.45;;;28.88;;
53650;SDS011;39552;45.776;15.892;2022-11-15T06:29:07;67.18;;;31.45;;
53650;SDS011;39552;45.776;15.892;2022-11-15T06:31:34;73.47;;;30.48;;
53650;SDS011;39552;45.776;15.892;2022-11-15T06:34:02;64.88;;;30.30;;
53650;SDS011;39552;45.776;15.892;2022-11-15T06:36:29;69.60;;;31.13;;
53650;SDS011;39552;45.776;15.892;2022-11-15T06:38:57;64.00;;;29.98;;
53650;SDS011;39552;45.776;15.892;2022-11-15T06:41:34;61.45;;;29.92;;
53650;SDS011;39552;45.776;15.892;2022-11-15T06:44:02;67.18;;;28.60;;
53650;SDS011;39552;45.776;15.892;2022-11-15T06:47:05;61.65;;;28.90;;
53650;SDS011;39552;45.776;15.892;2022-11-15T06:49:32;61.38;;;29.95;;
53650;SDS011;39552;45.776;15.892;2022-11-15T06:51:59;68.10;;;31.38;;
53650;SDS011;39552;45.776;15.892;2022-11-15T06:54:27;68.28;;;31.10;;
53650;SDS011;39552;45.776;15.892;2022-11-15T06:56:54;68.40;;;31.20;;
53650;SDS011;39552;45.776;15.892;2022-11-15T06:59:20;66.43;;;31.85;;
53650;SDS011;39552;45.776;15.892;2022-11-15T07:44:36;76.32;;;32.85;;
53650;SDS011;39552;45.776;15.892;2022-11-15T07:47:03;83.35;;;33.10;;
53650;SDS011;39552;45.776;15.892;2022-11-15T07:49:30;78.18;;;32.65;;
53650;SDS011;39552;45.776;15.892;2022-11-15T07:51:58;77.28;;;32.25;;
53650;SDS011;39552;45.776;15.892;2022-11-15T07:54:26;76.75;;;33.42;;
53650;SDS011;39552;45.776;15.892;2022-11-15T10:09:45;41.10;;;22.08;;
53650;SDS011;39552;45.776;15.892;2022-11-15T10:12:17;36.17;;;21.52;;
53650;SDS011;39552;45.776;15.892;2022-11-15T10:14:45;40.63;;;22.35;;
53650;SDS011;39552;45.776;15.892;2022-11-15T10:17:30;39.83;;;22.88;;
53650;SDS011;39552;45.776;15.892;2022-11-15T10:20:14;43.25;;;24.10;;
53650;SDS011;39552;45.776;15.892;2022-11-15T10:25:22;38.88;;;23.00;;
53650;SDS011;39552;45.776;15.892;2022-11-15T10:32:53;40.05;;;22.60;;
53650;SDS011;39552;45.776;15.892;2022-11-15T10:35:25;41.38;;;22.85;;
53650;SDS011;39552;45.776;15.892;2022-11-15T10:38:05;44.30;;;23.25;;
53650;SDS011;39552;45.776;15.892;2022-11-15T10:56:57;43.38;;;24.38;;
53650;SDS011;39552;45.776;15.892;2022-11-15T10:59:29;53.50;;;26.42;;
53650;SDS011;39552;45.776;15.892;2022-11-15T11:04:59;48.35;;;26.95;;
53650;SDS011;39552;45.776;15.892;2022-11-15T11:07:55;46.85;;;26.15;;
53650;SDS011;39552;45.776;15.892;2022-11-15T11:10:33;43.80;;;24.55;;
53650;SDS011;39552;45.776;15.892;2022-11-15T11:13:32;47.53;;;25.45;;
53650;SDS011;39552;45.776;15.892;2022-11-15T11:24:32;46.90;;;24.30;;
53650;SDS011;39552;45.776;15.892;2022-11-15T11:30:41;43.15;;;24.60;;
53650;SDS011;39552;45.776;15.892;2022-11-15T11:33:46;44.92;;;24.15;;
53650;SDS011;39552;45.776;15.892;2022-11-15T11:39:25;44.30;;;23.73;;
53650;SDS011;39552;45.776;15.892;2022-11-15T11:42:12;45.28;;;24.85;;
53650;SDS011;39552;45.776;15.892;2022-11-15T11:45:22;48.25;;;24.25;;
53650;SDS011;39552;45.776;15.892;2022-11-15T11:48:42;46.35;;;24.83;;
53650;SDS011;39552;45.776;15.892;2022-11-15T11:51:38;43.20;;;25.13;;
53650;SDS011;39552;45.776;15.892;2022-11-15T11:54:31;49.63;;;25.50;;
53650;SDS011;39552;45.776;15.892;2022-11-15T12:00:18;50.53;;;25.45;;
53650;SDS011;39552;45.776;15.892;2022-11-15T12:09:12;50.53;;;24.63;;
53650;SDS011;39552;45.776;15.892;2022-11-15T12:19:45;47.70;;;24.92;;
53650;SDS011;39552;45.776;15.892;2022-11-15T12:22:24;48.70;;;24.15;;
53650;SDS011;39552;45.776;15.892;2022-11-15T12:25:14;43.22;;;23.25;;
53650;SDS011;39552;45.776;15.892;2022-11-15T12:28:01;44.87;;;25.17;;
53650;SDS011;39552;45.776;15.892;2022-11-15T12:30:59;46.53;;;24.35;;
53650;SDS011;39552;45.776;15.892;2022-11-15T12:36:37;45.65;;;25.15;;
53650;SDS011;39552;45.776;15.892;2022-11-15T13:17:26;42.95;;;24.67;;
53650;SDS011;39552;45.776;15.892;2022-11-15T13:20:00;41.47;;;24.17;;
53650;SDS011;39552;45.776;15.892;2022-11-15T13:22:49;52.22;;;25.75;;
53650;SDS011;39552;45.776;15.892;2022-11-15T13:25:24;45.42;;;24.02;;
53650;SDS011;39552;45.776;15.892;2022-11-15T13:28:09;43.35;;;24.88;;
53650;SDS011;39552;45.776;15.892;2022-11-15T13:30:54;44.47;;;24.10;;
53650;SDS011;39552;45.776;15.892;2022-11-15T13:33:23;41.33;;;24.42;;
53650;SDS011;39552;45.776;15.892;2022-11-15T13:38:42;37.65;;;21.67;;
53650;SDS011;39552;45.776;15.892;2022-11-15T13:53:36;32.30;;;19.73;;
53650;SDS011;39552;45.776;15.892;2022-11-15T13:56:09;35.88;;;20.75;;
53650;SDS011;39552;45.776;15.892;2022-11-15T16:29:47;35.28;;;21.65;;
53650;SDS011;39552;45.776;15.892;2022-11-15T16:32:15;34.42;;;22.92;;
53650;SDS011;39552;45.776;15.892;2022-11-15T16:34:42;40.65;;;22.55;;
53650;SDS011;39552;45.776;15.892;2022-11-15T16:37:20;43.53;;;23.52;;
53650;SDS011;39552;45.776;15.892;2022-11-15T16:39:49;39.42;;;22.05;;
53650;SDS011;39552;45.776;15.892;2022-11-15T16:42:25;41.22;;;23.70;;
53650;SDS011;39552;45.776;15.892;2022-11-15T16:44:53;42.80;;;25.75;;
53650;SDS011;39552;45.776;15.892;2022-11-15T16:47:20;40.40;;;25.05;;
53650;SDS011;39552;45.776;15.892;2022-11-15T16:49:47;40.30;;;26.75;;
53650;SDS011;39552;45.776;15.892;2022-11-15T16:52:17;44.80;;;27.10;;
53650;SDS011;39552;45.776;15.892;2022-11-15T16:54:46;45.70;;;26.90;;
53650;SDS011;39552;45.776;15.892;2022-11-15T16:57:16;43.55;;;26.90;;
53650;SDS011;39552;45.776;15.892;2022-11-15T16:59:43;42.58;;;26.95;;
53650;SDS011;39552;45.776;15.892;2022-11-15T17:02:12;44.35;;;26.90;;
53650;SDS011;39552;45.776;15.892;2022-11-15T17:04:46;45.13;;;27.70;;
53650;SDS011;39552;45.776;15.892;2022-11-15T17:07:13;47.45;;;28.77;;
53650;SDS011;39552;45.776;15.892;2022-11-15T17:09:41;50.58;;;27.70;;
53650;SDS011;39552;45.776;15.892;2022-11-15T17:12:08;46.85;;;28.27;;
53650;SDS011;39552;45.776;15.892;2022-11-15T17:14:35;42.97;;;28.35;;
53650;SDS011;39552;45.776;15.892;2022-11-15T17:17:01;41.42;;;26.92;;
53650;SDS011;39552;45.776;15.892;2022-11-15T17:19:30;46.47;;;28.80;;
53650;SDS011;39552;45.776;15.892;2022-11-15T17:21:57;53.33;;;29.33;;
53650;SDS011;39552;45.776;15.892;2022-11-15T17:24:26;49.50;;;29.65;;
53650;SDS011;39552;45.776;15.892;2022-11-15T17:26:53;49.40;;;30.27;;
53650;SDS011;39552;45.776;15.892;2022-11-15T17:29:20;51.22;;;30.63;;
53650;SDS011;39552;45.776;15.892;2022-11-15T17:32:02;54.38;;;29.15;;
53650;SDS011;39552;45.776;15.892;2022-11-15T17:34:31;51.08;;;31.38;;
53650;SDS011;39552;45.776;15.892;2022-11-15T17:36:58;58.97;;;33.42;;
53650;SDS011;39552;45.776;15.892;2022-11-15T17:39:29;50.63;;;33.13;;
53650;SDS011;39552;45.776;15.892;2022-11-15T17:41:56;60.55;;;35.00;;
53650;SDS011;39552;45.776;15.892;2022-11-15T17:44:23;61.72;;;34.20;;
53650;SDS011;39552;45.776;15.892;2022-11-15T17:46:52;50.50;;;32.35;;
53650;SDS011;39552;45.776;15.892;2022-11-15T17:49:19;53.80;;;32.40;;
53650;SDS011;39552;45.776;15.892;2022-11-15T17:51:47;59.08;;;34.90;;
53650;SDS011;39552;45.776;15.892;2022-11-15T17:54:15;55.05;;;34.40;;
53650;SDS011;39552;45.776;15.892;2022-11-15T17:56:42;60.30;;;35.45;;
53650;SDS011;39552;45.776;15.892;2022-11-15T17:59:09;58.60;;;35.22;;
53650;SDS011;39552;45.776;15.892;2022-11-15T18:01:42;60.60;;;35.72;;
53650;SDS011;39552;45.776;15.892;2022-11-15T18:04:09;57.25;;;34.90;;
53650;SDS011;39552;45.776;15.892;2022-11-15T18:06:36;61.13;;;35.35;;
53650;SDS011;39552;45.776;15.892;2022-11-15T18:09:04;65.40;;;36.10;;
53650;SDS011;39552;45.776;15.892;2022-11-15T18:11:32;56.23;;;35.07;;
53650;SDS011;39552;45.776;15.892;2022-11-15T18:14:01;61.60;;;36.67;;
53650;SDS011;39552;45.776;15.892;2022-11-15T18:16:29;61.25;;;34.92;;
53650;SDS011;39552;45.776;15.892;2022-11-15T18:18:57;56.33;;;34.30;;
53650;SDS011;39552;45.776;15.892;2022-11-15T18:21:25;60.72;;;33.58;;
53650;SDS011;39552;45.776;15.892;2022-11-15T18:24:00;55.25;;;33.15;;
53650;SDS011;39552;45.776;15.892;2022-11-15T18:26:30;50.53;;;31.38;;
53650;SDS011;39552;45.776;15.892;2022-11-15T18:29:01;62.72;;;35.33;;
53650;SDS011;39552;45.776;15.892;2022-11-15T18:31:29;51.15;;;32.55;;
53650;SDS011;39552;45.776;15.892;2022-11-15T18:33:57;50.67;;;32.03;;
53650;SDS011;39552;45.776;15.892;2022-11-15T18:36:27;55.95;;;32.95;;
53650;SDS011;39552;45.776;15.892;2022-11-15T18:38:55;54.25;;;31.60;;
53650;SDS011;39552;45.776;15.892;2022-11-15T18:41:23;49.97;;;31.17;;
53650;SDS011;39552;45.776;15.892;2022-11-15T18:43:52;50.80;;;31.42;;
53650;SDS011;39552;45.776;15.892;2022-11-15T18:46:23;54.28;;;30.80;;
53650;SDS011;39552;45.776;15.892;2022-11-15T18:48:52;48.30;;;30.17;;
53650;SDS011;39552;45.776;15.892;2022-11-15T18:51:20;47.05;;;29.10;;
53650;SDS011;39552;45.776;15.892;2022-11-15T18:53:50;52.45;;;30.20;;
53650;SDS011;39552;45.776;15.892;2022-11-15T18:56:18;45.58;;;29.98;;
53650;SDS011;39552;45.776;15.892;2022-11-15T18:58:46;47.05;;;28.98;;
53650;SDS011;39552;45.776;15.892;2022-11-15T19:01:21;56.90;;;31.27;;
53650;SDS011;39552;45.776;15.892;2022-11-15T19:03:53;47.20;;;29.98;;
53650;SDS011;39552;45.776;15.892;2022-11-15T19:06:24;46.28;;;29.25;;
53650;SDS011;39552;45.776;15.892;2022-11-15T19:08:54;50.20;;;30.25;;
53650;SDS011;39552;45.776;15.892;2022-11-15T19:11:25;49.97;;;30.42;;
53650;SDS011;39552;45.776;15.892;2022-11-15T19:13:53;42.53;;;27.38;;
53650;SDS011;39552;45.776;15.892;2022-11-15T19:16:26;42.97;;;26.95;;
53650;SDS011;39552;45.776;15.892;2022-11-15T19:19:03;43.28;;;26.15;;
53650;SDS011;39552;45.776;15.892;2022-11-15T19:21:31;47.72;;;26.92;;
53650;SDS011;39552;45.776;15.892;2022-11-15T19:23:58;48.05;;;27.52;;
53650;SDS011;39552;45.776;15.892;2022-11-15T19:26:25;45.00;;;28.58;;
53650;SDS011;39552;45.776;15.892;2022-11-15T19:28:54;44.55;;;27.10;;
53650;SDS011;39552;45.776;15.892;2022-11-15T19:31:24;42.97;;;26.17;;
53650;SDS011;39552;45.776;15.892;2022-11-15T19:33:52;45.72;;;26.63;;
53650;SDS011;39552;45.776;15.892;2022-11-15T19:36:22;48.13;;;27.40;;
53650;SDS011;39552;45.776;15.892;2022-11-15T19:38:52;47.88;;;27.65;;
53650;SDS011;39552;45.776;15.892;2022-11-15T19:41:19;44.95;;;27.50;;
53650;SDS011;39552;45.776;15.892;2022-11-15T19:43:47;49.75;;;27.45;;
53650;SDS011;39552;45.776;15.892;2022-11-15T19:46:17;45.67;;;28.02;;
53650;SDS011;39552;45.776;15.892;2022-11-15T19:48:48;42.92;;;26.25;;
53650;SDS011;39552;45.776;15.892;2022-11-15T19:51:18;46.15;;;28.52;;
53650;SDS011;39552;45.776;15.892;2022-11-15T19:53:46;49.67;;;28.38;;
53650;SDS011;39552;45.776;15.892;2022-11-15T19:56:16;43.70;;;27.77;;
53650;SDS011;39552;45.776;15.892;2022-11-15T19:58:44;44.97;;;28.58;;
53650;SDS011;39552;45.776;15.892;2022-11-15T20:01:18;44.65;;;27.42;;
53650;SDS011;39552;45.776;15.892;2022-11-15T20:03:49;46.33;;;27.15;;
53650;SDS011;39552;45.776;15.892;2022-11-15T20:06:22;48.95;;;29.27;;
53650;SDS011;39552;45.776;15.892;2022-11-15T20:09:00;42.30;;;27.95;;
53650;SDS011;39552;45.776;15.892;2022-11-15T20:11:31;47.95;;;27.08;;
53650;SDS011;39552;45.776;15.892;2022-11-15T20:13:59;46.20;;;27.88;;
53650;SDS011;39552;45.776;15.892;2022-11-15T20:16:27;43.35;;;28.80;;
53650;SDS011;39552;45.776;15.892;2022-11-15T20:18:57;53.92;;;29.75;;
53650;SDS011;39552;45.776;15.892;2022-11-15T20:21:26;47.78;;;28.95;;
53650;SDS011;39552;45.776;15.892;2022-11-15T20:23:53;48.03;;;29.65;;
53650;SDS011;39552;45.776;15.892;2022-11-15T20:26:20;51.78;;;32.00;;
53650;SDS011;39552;45.776;15.892;2022-11-15T20:28:47;57.10;;;32.95;;
53650;SDS011;39552;45.776;15.892;2022-11-15T20:31:14;50.63;;;29.67;;
53650;SDS011;39552;45.776;15.892;2022-11-15T20:33:42;51.53;;;31.52;;
53650;SDS011;39552;45.776;15.892;2022-11-15T20:36:12;49.70;;;31.02;;
53650;SDS011;39552;45.776;15.892;2022-11-15T20:38:40;52.67;;;30.50;;
53650;SDS011;39552;45.776;15.892;2022-11-15T20:41:08;47.33;;;30.08;;
53650;SDS011;39552;45.776;15.892;2022-11-15T20:43:36;52.20;;;31.10;;
53650;SDS011;39552;45.776;15.892;2022-11-15T20:46:02;51.70;;;28.45;;
53650;SDS011;39552;45.776;15.892;2022-11-15T20:48:29;47.58;;;29.45;;
53650;SDS011;39552;45.776;15.892;2022-11-15T20:51:03;43.65;;;28.10;;
53650;SDS011;39552;45.776;15.892;2022-11-15T20:53:32;46.72;;;27.60;;
53650;SDS011;39552;45.776;15.892;2022-11-15T20:56:04;44.73;;;28.47;;
53650;SDS011;39552;45.776;15.892;2022-11-15T20:58:32;47.38;;;29.73;;
53650;SDS011;39552;45.776;15.892;2022-11-15T21:01:00;48.38;;;29.30;;
53650;SDS011;39552;45.776;15.892;2022-11-15T21:03:27;52.40;;;31.05;;
53650;SDS011;39552;45.776;15.892;2022-11-15T21:05:53;46.75;;;29.35;;
53650;SDS011;39552;45.776;15.892;2022-11-15T21:08:20;49.00;;;31.35;;
53650;SDS011;39552;45.776;15.892;2022-11-15T21:10:49;50.63;;;30.40;;
53650;SDS011;39552;45.776;15.892;2022-11-15T21:13:18;45.92;;;28.38;;
53650;SDS011;39552;45.776;15.892;2022-11-15T21:15:45;44.17;;;28.33;;
53650;SDS011;39552;45.776;15.892;2022-11-15T21:18:12;38.25;;;25.38;;
53650;SDS011;39552;45.776;15.892;2022-11-15T21:20:38;37.70;;;24.38;;
53650;SDS011;39552;45.776;15.892;2022-11-15T21:23:07;37.95;;;23.77;;
53650;SDS011;39552;45.776;15.892;2022-11-15T21:25:34;37.83;;;22.85;;
53650;SDS011;39552;45.776;15.892;2022-11-15T21:28:03;35.30;;;21.45;;
53650;SDS011;39552;45.776;15.892;2022-11-15T21:30:30;35.55;;;20.38;;
53650;SDS011;39552;45.776;15.892;2022-11-15T21:32:56;32.55;;;19.13;;
53650;SDS011;39552;45.776;15.892;2022-11-15T21:35:23;30.58;;;20.20;;
53650;SDS011;39552;45.776;15.892;2022-11-15T21:37:50;31.42;;;19.73;;
53650;SDS011;39552;45.776;15.892;2022-11-15T21:40:22;32.13;;;20.35;;
53650;SDS011;39552;45.776;15.892;2022-11-15T21:42:49;30.58;;;18.98;;
53650;SDS011;39552;45.776;15.892;2022-11-15T21:45:28;27.25;;;19.75;;
53650;SDS011;39552;45.776;15.892;2022-11-15T21:47:55;34.78;;;21.63;;
53650;SDS011;39552;45.776;15.892;2022-11-15T21:50:22;34.47;;;20.80;;
53650;SDS011;39552;45.776;15.892;2022-11-15T21:52:49;33.00;;;21.23;;
53650;SDS011;39552;45.776;15.892;2022-11-15T21:55:16;32.58;;;22.58;;
53650;SDS011;39552;45.776;15.892;2022-11-15T21:57:44;34.60;;;22.05;;
53650;SDS011;39552;45.776;15.892;2022-11-15T22:00:12;43.67;;;24.80;;